sensor_id;sensor_type;location;lat;lon;timestamp;temperature;humidity
24260;DHT22;12384;48.112;18.418;2023-05-20T00:00:53;15.00;99.90
24260;DHT22;12384;48.112;18.418;2023-05-20T00:03:22;15.00;99.90
24260;DHT22;12384;48.112;18.418;2023-05-20T00:05:50;15.00;99.90
24260;DHT22;12384;48.112;18.418;2023-05-20T00:08:20;15.00;99.90
24260;DHT22;12384;48.112;18.418;2023-05-20T00:10:49;15.00;99.90
24260;DHT22;12384;48.112;18.418;2023-05-20T00:13:17;14.90;99.90
24260;DHT22;12384;48.112;18.418;2023-05-20T00:15:45;14.90;99.90
24260;DHT22;12384;48.112;18.418;2023-05-20T00:18:14;14.80;99.90
24260;DHT22;12384;48.112;18.418;2023-05-20T00:20:42;14.80;99.90
24260;DHT22;12384;48.112;18.418;2023-05-20T00:23:11;14.70;99.90
24260;DHT22;12384;48.112;18.418;2023-05-20T00:25:41;14.70;99.90
24260;DHT22;12384;48.112;18.418;2023-05-20T00:28:09;14.60;99.90
24260;DHT22;12384;48.112;18.418;2023-05-20T00:30:39;14.60;99.90
24260;DHT22;12384;48.112;18.418;2023-05-20T00:33:08;14.50;99.90
24260;DHT22;12384;48.112;18.418;2023-05-20T00:35:37;14.50;99.90
24260;DHT22;12384;48.112;18.418;2023-05-20T00:38:06;14.50;99.90
24260;DHT22;12384;48.112;18.418;2023-05-20T00:40:34;14.50;99.90
24260;DHT22;12384;48.112;18.418;2023-05-20T00:43:04;14.40;99.90
24260;DHT22;12384;48.112;18.418;2023-05-20T00:45:32;14.40;99.90
24260;DHT22;12384;48.112;18.418;2023-05-20T00:48:02;14.30;99.90
24260;DHT22;12384;48.112;18.418;2023-05-20T00:50:31;14.30;99.90
24260;DHT22;12384;48.112;18.418;2023-05-20T00:53:00;14.20;99.90
24260;DHT22;12384;48.112;18.418;2023-05-20T00:55:29;14.20;99.90
24260;DHT22;12384;48.112;18.418;2023-05-20T00:57:58;14.20;99.90
24260;DHT22;12384;48.112;18.418;2023-05-20T01:00:28;14.20;99.90
24260;DHT22;12384;48.112;18.418;2023-05-20T01:02:56;14.10;99.90
24260;DHT22;12384;48.112;18.418;2023-05-20T01:05:25;14.10;99.90
24260;DHT22;12384;48.112;18.418;2023-05-20T01:07:54;14.10;99.90
24260;DHT22;12384;48.112;18.418;2023-05-20T01:10:25;14.10;99.90
24260;DHT22;12384;48.112;18.418;2023-05-20T01:12:58;14.10;99.90
24260;DHT22;12384;48.112;18.418;2023-05-20T01:15:30;14.00;99.90
24260;DHT22;12384;48.112;18.418;2023-05-20T01:18:01;14.00;99.90
24260;DHT22;12384;48.112;18.418;2023-05-20T01:20:32;14.00;99.90
24260;DHT22;12384;48.112;18.418;2023-05-20T01:23:03;13.90;99.90
24260;DHT22;12384;48.112;18.418;2023-05-20T01:25:32;13.90;99.90
24260;DHT22;12384;48.112;18.418;2023-05-20T01:28:00;13.90;99.90
24260;DHT22;12384;48.112;18.418;2023-05-20T01:30:34;13.90;99.90
24260;DHT22;12384;48.112;18.418;2023-05-20T01:33:08;13.90;99.90
24260;DHT22;12384;48.112;18.418;2023-05-20T01:35:39;13.90;99.90
24260;DHT22;12384;48.112;18.418;2023-05-20T01:38:11;13.90;99.90
24260;DHT22;12384;48.112;18.418;2023-05-20T01:40:40;13.80;99.90
24260;DHT22;12384;48.112;18.418;2023-05-20T01:43:11;13.80;99.90
24260;DHT22;12384;48.112;18.418;2023-05-20T01:45:44;13.80;99.90
24260;DHT22;12384;48.112;18.418;2023-05-20T01:48:12;13.80;99.90
24260;DHT22;12384;48.112;18.418;2023-05-20T01:50:41;13.80;99.90
24260;DHT22;12384;48.112;18.418;2023-05-20T01:53:11;13.80;99.90
24260;DHT22;12384;48.112;18.418;2023-05-20T01:55:41;13.80;99.90
24260;DHT22;12384;48.112;18.418;2023-05-20T01:58:09;13.90;99.90
24260;DHT22;12384;48.112;18.418;2023-05-20T02:00:38;13.90;99.90
24260;DHT22;12384;48.112;18.418;2023-05-20T02:03:06;13.90;99.90
24260;DHT22;12384;48.112;18.418;2023-05-20T02:05:35;13.90;99.90
24260;DHT22;12384;48.112;18.418;2023-05-20T02:08:04;14.00;99.90
24260;DHT22;12384;48.112;18.418;2023-05-20T02:10:34;14.00;99.90
24260;DHT22;12384;48.112;18.418;2023-05-20T02:13:03;14.00;99.90
24260;DHT22;12384;48.112;18.418;2023-05-20T02:15:32;14.00;99.90
24260;DHT22;12384;48.112;18.418;2023-05-20T02:18:01;14.10;99.90
24260;DHT22;12384;48.112;18.418;2023-05-20T02:20:34;14.10;99.90
24260;DHT22;12384;48.112;18.418;2023-05-20T02:23:03;14.20;99.90
24260;DHT22;12384;48.112;18.418;2023-05-20T02:25:34;14.20;99.90
24260;DHT22;12384;48.112;18.418;2023-05-20T02:28:02;14.20;99.90
24260;DHT22;12384;48.112;18.418;2023-05-20T02:30:37;14.30;99.90
24260;DHT22;12384;48.112;18.418;2023-05-20T02:33:05;14.30;99.90
24260;DHT22;12384;48.112;18.418;2023-05-20T02:35:36;14.30;99.90
24260;DHT22;12384;48.112;18.418;2023-05-20T02:38:04;14.30;99.90
24260;DHT22;12384;48.112;18.418;2023-05-20T02:40:34;14.30;99.90
24260;DHT22;12384;48.112;18.418;2023-05-20T02:43:03;14.30;99.90
24260;DHT22;12384;48.112;18.418;2023-05-20T02:45:33;14.30;99.90
24260;DHT22;12384;48.112;18.418;2023-05-20T02:48:02;14.30;99.90
24260;DHT22;12384;48.112;18.418;2023-05-20T02:50:31;14.30;99.90
24260;DHT22;12384;48.112;18.418;2023-05-20T02:53:00;14.30;99.90
24260;DHT22;12384;48.112;18.418;2023-05-20T02:55:29;14.30;99.90
24260;DHT22;12384;48.112;18.418;2023-05-20T02:57:59;14.30;99.90
24260;DHT22;12384;48.112;18.418;2023-05-20T03:00:28;14.30;99.90
24260;DHT22;12384;48.112;18.418;2023-05-20T03:02:57;14.30;99.90
24260;DHT22;12384;48.112;18.418;2023-05-20T03:05:27;14.30;99.90
24260;DHT22;12384;48.112;18.418;2023-05-20T03:07:56;14.20;99.90
24260;DHT22;12384;48.112;18.418;2023-05-20T03:10:26;14.20;99.90
24260;DHT22;12384;48.112;18.418;2023-05-20T03:12:54;14.20;99.90
24260;DHT22;12384;48.112;18.418;2023-05-20T03:15:24;14.20;99.90
24260;DHT22;12384;48.112;18.418;2023-05-20T03:17:53;14.20;99.90
24260;DHT22;12384;48.112;18.418;2023-05-20T03:20:22;14.10;99.90
24260;DHT22;12384;48.112;18.418;2023-05-20T03:22:53;14.10;99.90
24260;DHT22;12384;48.112;18.418;2023-05-20T03:25:22;14.10;99.90
24260;DHT22;12384;48.112;18.418;2023-05-20T03:27:51;14.10;99.90
24260;DHT22;12384;48.112;18.418;2023-05-20T03:30:21;14.10;99.90
24260;DHT22;12384;48.112;18.418;2023-05-20T03:32:55;14.10;99.90
24260;DHT22;12384;48.112;18.418;2023-05-20T03:35:24;14.10;99.90
24260;DHT22;12384;48.112;18.418;2023-05-20T03:37:53;14.10;99.90
24260;DHT22;12384;48.112;18.418;2023-05-20T03:40:23;14.10;99.90
24260;DHT22;12384;48.112;18.418;2023-05-20T03:42:52;14.20;99.90
24260;DHT22;12384;48.112;18.418;2023-05-20T03:45:21;14.10;99.90
24260;DHT22;12384;48.112;18.418;2023-05-20T03:48:07;14.20;99.90
24260;DHT22;12384;48.112;18.418;2023-05-20T03:50:37;14.20;99.90
24260;DHT22;12384;48.112;18.418;2023-05-20T03:53:05;14.20;99.90
24260;DHT22;12384;48.112;18.418;2023-05-20T03:55:38;14.30;99.90
24260;DHT22;12384;48.112;18.418;2023-05-20T03:58:09;14.30;99.90
24260;DHT22;12384;48.112;18.418;2023-05-20T04:00:40;14.30;99.90
24260;DHT22;12384;48.112;18.418;2023-05-20T04:03:10;14.40;99.90
24260;DHT22;12384;48.112;18.418;2023-05-20T04:05:39;14.50;99.90
24260;DHT22;12384;48.112;18.418;2023-05-20T04:08:15;14.60;99.90
24260;DHT22;12384;48.112;18.418;2023-05-20T04:10:45;14.60;99.90
24260;DHT22;12384;48.112;18.418;2023-05-20T04:13:14;14.70;99.90
24260;DHT22;12384;48.112;18.418;2023-05-20T04:15:43;14.80;99.90
24260;DHT22;12384;48.112;18.418;2023-05-20T04:18:13;14.90;99.90
24260;DHT22;12384;48.112;18.418;2023-05-20T04:20:41;15.00;99.90
24260;DHT22;12384;48.112;18.418;2023-05-20T04:23:12;15.10;99.90
24260;DHT22;12384;48.112;18.418;2023-05-20T04:25:41;15.20;99.90
24260;DHT22;12384;48.112;18.418;2023-05-20T04:28:11;15.30;99.90
24260;DHT22;12384;48.112;18.418;2023-05-20T04:30:42;15.40;99.90
24260;DHT22;12384;48.112;18.418;2023-05-20T04:33:13;15.50;99.90
24260;DHT22;12384;48.112;18.418;2023-05-20T04:35:42;15.60;99.90
24260;DHT22;12384;48.112;18.418;2023-05-20T04:38:11;15.70;99.90
24260;DHT22;12384;48.112;18.418;2023-05-20T04:40:39;15.80;99.90
24260;DHT22;12384;48.112;18.418;2023-05-20T04:43:08;15.90;99.90
24260;DHT22;12384;48.112;18.418;2023-05-20T04:45:37;16.00;99.90
24260;DHT22;12384;48.112;18.418;2023-05-20T04:48:06;16.10;99.90
24260;DHT22;12384;48.112;18.418;2023-05-20T04:50:37;16.20;99.90
24260;DHT22;12384;48.112;18.418;2023-05-20T04:53:08;16.30;99.90
24260;DHT22;12384;48.112;18.418;2023-05-20T04:55:36;16.50;99.90
24260;DHT22;12384;48.112;18.418;2023-05-20T04:58:05;16.60;99.50
24260;DHT22;12384;48.112;18.418;2023-05-20T05:00:35;16.80;99.10
24260;DHT22;12384;48.112;18.418;2023-05-20T05:03:04;17.00;98.80
24260;DHT22;12384;48.112;18.418;2023-05-20T05:05:41;17.40;98.30
24260;DHT22;12384;48.112;18.418;2023-05-20T05:08:14;17.80;96.60
24260;DHT22;12384;48.112;18.418;2023-05-20T05:10:49;18.30;94.40
24260;DHT22;12384;48.112;18.418;2023-05-20T05:13:17;18.70;92.70
24260;DHT22;12384;48.112;18.418;2023-05-20T05:15:47;19.10;91.40
24260;DHT22;12384;48.112;18.418;2023-05-20T05:18:16;19.60;87.20
24260;DHT22;12384;48.112;18.418;2023-05-20T05:20:47;19.90;82.40
24260;DHT22;12384;48.112;18.418;2023-05-20T05:23:15;20.20;77.40
24260;DHT22;12384;48.112;18.418;2023-05-20T05:25:44;20.50;73.80
24260;DHT22;12384;48.112;18.418;2023-05-20T05:28:12;20.90;71.90
24260;DHT22;12384;48.112;18.418;2023-05-20T05:30:40;21.20;70.30
24260;DHT22;12384;48.112;18.418;2023-05-20T05:33:09;21.50;68.70
24260;DHT22;12384;48.112;18.418;2023-05-20T05:35:37;21.80;67.50
24260;DHT22;12384;48.112;18.418;2023-05-20T05:38:08;22.10;66.70
24260;DHT22;12384;48.112;18.418;2023-05-20T05:40:36;22.40;65.60
24260;DHT22;12384;48.112;18.418;2023-05-20T05:43:06;22.70;64.20
24260;DHT22;12384;48.112;18.418;2023-05-20T05:45:35;23.00;62.60
24260;DHT22;12384;48.112;18.418;2023-05-20T05:48:23;23.20;59.80
24260;DHT22;12384;48.112;18.418;2023-05-20T05:50:52;23.50;58.20
24260;DHT22;12384;48.112;18.418;2023-05-20T05:53:22;23.60;57.70
24260;DHT22;12384;48.112;18.418;2023-05-20T05:55:51;23.80;58.30
24260;DHT22;12384;48.112;18.418;2023-05-20T05:58:20;24.00;57.40
24260;DHT22;12384;48.112;18.418;2023-05-20T06:00:50;24.30;57.00
24260;DHT22;12384;48.112;18.418;2023-05-20T06:03:19;24.60;56.50
24260;DHT22;12384;48.112;18.418;2023-05-20T06:05:49;24.80;55.50
24260;DHT22;12384;48.112;18.418;2023-05-20T06:08:19;25.10;54.30
24260;DHT22;12384;48.112;18.418;2023-05-20T06:10:49;25.20;53.20
24260;DHT22;12384;48.112;18.418;2023-05-20T06:13:18;25.40;52.30
24260;DHT22;12384;48.112;18.418;2023-05-20T06:15:48;25.50;51.60
24260;DHT22;12384;48.112;18.418;2023-05-20T06:18:17;25.60;51.10
24260;DHT22;12384;48.112;18.418;2023-05-20T06:20:59;25.70;50.20
24260;DHT22;12384;48.112;18.418;2023-05-20T06:23:27;25.80;49.20
24260;DHT22;12384;48.112;18.418;2023-05-20T06:26:04;26.00;48.10
24260;DHT22;12384;48.112;18.418;2023-05-20T06:28:33;26.00;47.70
24260;DHT22;12384;48.112;18.418;2023-05-20T06:31:01;26.00;47.60
24260;DHT22;12384;48.112;18.418;2023-05-20T06:33:32;26.20;47.80
24260;DHT22;12384;48.112;18.418;2023-05-20T06:36:06;26.30;47.20
24260;DHT22;12384;48.112;18.418;2023-05-20T06:38:34;26.40;46.60
24260;DHT22;12384;48.112;18.418;2023-05-20T06:41:05;26.40;46.40
24260;DHT22;12384;48.112;18.418;2023-05-20T06:43:34;26.50;46.10
24260;DHT22;12384;48.112;18.418;2023-05-20T06:46:04;26.70;45.40
24260;DHT22;12384;48.112;18.418;2023-05-20T06:48:36;26.70;44.10
24260;DHT22;12384;48.112;18.418;2023-05-20T06:51:09;26.70;44.20
24260;DHT22;12384;48.112;18.418;2023-05-20T06:53:38;26.80;44.30
24260;DHT22;12384;48.112;18.418;2023-05-20T06:56:10;26.90;44.00
24260;DHT22;12384;48.112;18.418;2023-05-20T06:58:40;27.00;43.10
24260;DHT22;12384;48.112;18.418;2023-05-20T07:01:09;27.00;43.10
24260;DHT22;12384;48.112;18.418;2023-05-20T07:03:39;27.10;42.60
24260;DHT22;12384;48.112;18.418;2023-05-20T07:06:10;27.10;43.10
24260;DHT22;12384;48.112;18.418;2023-05-20T07:08:38;27.10;42.80
24260;DHT22;12384;48.112;18.418;2023-05-20T07:11:09;27.10;42.30
24260;DHT22;12384;48.112;18.418;2023-05-20T07:13:38;27.10;41.80
24260;DHT22;12384;48.112;18.418;2023-05-20T07:16:06;27.10;42.10
24260;DHT22;12384;48.112;18.418;2023-05-20T07:18:38;27.00;42.70
24260;DHT22;12384;48.112;18.418;2023-05-20T07:21:07;27.00;42.40
24260;DHT22;12384;48.112;18.418;2023-05-20T07:23:58;27.00;42.90
24260;DHT22;12384;48.112;18.418;2023-05-20T07:26:48;27.10;42.70
24260;DHT22;12384;48.112;18.418;2023-05-20T07:29:17;27.20;42.80
24260;DHT22;12384;48.112;18.418;2023-05-20T07:31:45;27.20;42.60
24260;DHT22;12384;48.112;18.418;2023-05-20T07:34:15;27.30;42.90
24260;DHT22;12384;48.112;18.418;2023-05-20T07:36:45;27.40;42.10
24260;DHT22;12384;48.112;18.418;2023-05-20T07:39:14;27.40;41.60
24260;DHT22;12384;48.112;18.418;2023-05-20T07:41:43;27.50;42.10
24260;DHT22;12384;48.112;18.418;2023-05-20T07:44:13;27.50;42.70
24260;DHT22;12384;48.112;18.418;2023-05-20T07:46:47;27.60;42.60
24260;DHT22;12384;48.112;18.418;2023-05-20T07:49:18;27.70;42.00
24260;DHT22;12384;48.112;18.418;2023-05-20T07:51:47;27.80;40.50
24260;DHT22;12384;48.112;18.418;2023-05-20T07:54:16;27.80;40.10
24260;DHT22;12384;48.112;18.418;2023-05-20T07:56:47;27.80;40.20
24260;DHT22;12384;48.112;18.418;2023-05-20T07:59:17;27.80;40.80
24260;DHT22;12384;48.112;18.418;2023-05-20T08:01:47;27.80;41.20
24260;DHT22;12384;48.112;18.418;2023-05-20T08:04:18;27.90;41.20
24260;DHT22;12384;48.112;18.418;2023-05-20T08:06:46;27.90;40.80
24260;DHT22;12384;48.112;18.418;2023-05-20T08:09:23;28.00;40.90
24260;DHT22;12384;48.112;18.418;2023-05-20T08:11:54;28.10;40.60
24260;DHT22;12384;48.112;18.418;2023-05-20T08:14:24;28.20;40.60
24260;DHT22;12384;48.112;18.418;2023-05-20T08:16:53;28.20;40.80
24260;DHT22;12384;48.112;18.418;2023-05-20T08:19:22;28.30;40.80
24260;DHT22;12384;48.112;18.418;2023-05-20T08:21:52;28.40;39.90
24260;DHT22;12384;48.112;18.418;2023-05-20T08:24:21;28.50;40.10
24260;DHT22;12384;48.112;18.418;2023-05-20T08:26:50;28.50;40.00
24260;DHT22;12384;48.112;18.418;2023-05-20T08:29:21;28.60;40.60
24260;DHT22;12384;48.112;18.418;2023-05-20T08:31:51;28.70;40.40
24260;DHT22;12384;48.112;18.418;2023-05-20T08:34:20;28.90;40.30
24260;DHT22;12384;48.112;18.418;2023-05-20T08:36:50;29.00;40.70
24260;DHT22;12384;48.112;18.418;2023-05-20T08:39:18;29.10;39.20
24260;DHT22;12384;48.112;18.418;2023-05-20T08:41:47;29.20;38.10
24260;DHT22;12384;48.112;18.418;2023-05-20T08:44:18;29.20;38.70
24260;DHT22;12384;48.112;18.418;2023-05-20T08:46:49;29.20;38.30
24260;DHT22;12384;48.112;18.418;2023-05-20T08:49:20;29.20;38.90
24260;DHT22;12384;48.112;18.418;2023-05-20T08:51:48;29.10;38.10
24260;DHT22;12384;48.112;18.418;2023-05-20T08:54:18;29.10;38.70
24260;DHT22;12384;48.112;18.418;2023-05-20T08:56:47;29.10;38.70
24260;DHT22;12384;48.112;18.418;2023-05-20T08:59:16;29.10;38.80
24260;DHT22;12384;48.112;18.418;2023-05-20T09:01:45;29.10;38.50
24260;DHT22;12384;48.112;18.418;2023-05-20T09:04:14;29.20;38.40
24260;DHT22;12384;48.112;18.418;2023-05-20T09:06:45;29.20;38.30
24260;DHT22;12384;48.112;18.418;2023-05-20T09:09:14;29.20;38.20
24260;DHT22;12384;48.112;18.418;2023-05-20T09:11:43;29.20;38.50
24260;DHT22;12384;48.112;18.418;2023-05-20T09:14:11;29.20;38.20
24260;DHT22;12384;48.112;18.418;2023-05-20T09:16:40;29.20;37.40
24260;DHT22;12384;48.112;18.418;2023-05-20T09:19:09;29.20;37.90
24260;DHT22;12384;48.112;18.418;2023-05-20T09:21:40;29.20;38.60
24260;DHT22;12384;48.112;18.418;2023-05-20T09:24:11;29.10;38.80
24260;DHT22;12384;48.112;18.418;2023-05-20T09:26:39;29.10;38.70
24260;DHT22;12384;48.112;18.418;2023-05-20T09:29:08;29.20;39.90
24260;DHT22;12384;48.112;18.418;2023-05-20T09:31:36;29.20;38.00
24260;DHT22;12384;48.112;18.418;2023-05-20T09:34:06;29.20;38.00
24260;DHT22;12384;48.112;18.418;2023-05-20T09:36:38;29.10;38.30
24260;DHT22;12384;48.112;18.418;2023-05-20T09:39:13;29.10;39.30
24260;DHT22;12384;48.112;18.418;2023-05-20T09:41:50;29.20;39.00
24260;DHT22;12384;48.112;18.418;2023-05-20T09:44:24;29.30;39.20
24260;DHT22;12384;48.112;18.418;2023-05-20T09:46:56;29.50;39.50
24260;DHT22;12384;48.112;18.418;2023-05-20T09:49:25;29.70;40.00
24260;DHT22;12384;48.112;18.418;2023-05-20T09:51:57;29.80;39.50
24260;DHT22;12384;48.112;18.418;2023-05-20T09:54:28;30.10;38.70
24260;DHT22;12384;48.112;18.418;2023-05-20T09:56:58;30.30;38.10
24260;DHT22;12384;48.112;18.418;2023-05-20T09:59:27;30.50;37.30
24260;DHT22;12384;48.112;18.418;2023-05-20T10:01:57;30.70;36.20
24260;DHT22;12384;48.112;18.418;2023-05-20T10:04:27;30.80;35.50
24260;DHT22;12384;48.112;18.418;2023-05-20T10:10:20;31.00;35.30
24260;DHT22;12384;48.112;18.418;2023-05-20T10:13:02;31.00;35.50
24260;DHT22;12384;48.112;18.418;2023-05-20T10:15:43;31.10;35.60
24260;DHT22;12384;48.112;18.418;2023-05-20T10:18:22;31.10;35.20
24260;DHT22;12384;48.112;18.418;2023-05-20T10:20:52;31.10;35.40
24260;DHT22;12384;48.112;18.418;2023-05-20T10:23:21;31.00;35.80
24260;DHT22;12384;48.112;18.418;2023-05-20T10:25:52;31.10;36.00
24260;DHT22;12384;48.112;18.418;2023-05-20T10:28:28;31.20;35.30
24260;DHT22;12384;48.112;18.418;2023-05-20T10:30:58;31.20;34.50
24260;DHT22;12384;48.112;18.418;2023-05-20T10:33:27;31.20;34.20
24260;DHT22;12384;48.112;18.418;2023-05-20T10:35:57;31.20;34.90
24260;DHT22;12384;48.112;18.418;2023-05-20T10:38:26;31.20;35.10
24260;DHT22;12384;48.112;18.418;2023-05-20T10:41:07;31.20;35.40
24260;DHT22;12384;48.112;18.418;2023-05-20T10:43:37;31.30;35.20
24260;DHT22;12384;48.112;18.418;2023-05-20T10:46:05;31.30;34.80
24260;DHT22;12384;48.112;18.418;2023-05-20T10:49:00;31.20;34.70
24260;DHT22;12384;48.112;18.418;2023-05-20T10:51:29;31.20;34.60
24260;DHT22;12384;48.112;18.418;2023-05-20T10:53:59;31.10;34.80
24260;DHT22;12384;48.112;18.418;2023-05-20T10:56:28;31.10;35.20
24260;DHT22;12384;48.112;18.418;2023-05-20T10:58:57;31.00;35.00
24260;DHT22;12384;48.112;18.418;2023-05-20T11:01:29;31.00;35.30
24260;DHT22;12384;48.112;18.418;2023-05-20T11:03:58;31.00;35.10
24260;DHT22;12384;48.112;18.418;2023-05-20T11:06:28;31.00;34.90
24260;DHT22;12384;48.112;18.418;2023-05-20T11:09:03;31.10;34.60
24260;DHT22;12384;48.112;18.418;2023-05-20T11:11:34;31.10;34.10
24260;DHT22;12384;48.112;18.418;2023-05-20T11:14:04;31.00;35.20
24260;DHT22;12384;48.112;18.418;2023-05-20T11:16:33;31.00;35.30
24260;DHT22;12384;48.112;18.418;2023-05-20T11:19:01;31.10;35.00
24260;DHT22;12384;48.112;18.418;2023-05-20T11:21:30;31.20;34.80
24260;DHT22;12384;48.112;18.418;2023-05-20T11:24:00;31.20;34.40
24260;DHT22;12384;48.112;18.418;2023-05-20T11:26:28;31.30;34.00
24260;DHT22;12384;48.112;18.418;2023-05-20T11:29:00;31.30;33.80
24260;DHT22;12384;48.112;18.418;2023-05-20T11:31:29;31.40;33.70
24260;DHT22;12384;48.112;18.418;2023-05-20T11:33:58;31.40;34.90
24260;DHT22;12384;48.112;18.418;2023-05-20T11:36:30;31.60;35.40
24260;DHT22;12384;48.112;18.418;2023-05-20T11:38:59;31.80;35.50
24260;DHT22;12384;48.112;18.418;2023-05-20T11:41:28;32.10;34.30
24260;DHT22;12384;48.112;18.418;2023-05-20T11:43:57;32.20;32.20
24260;DHT22;12384;48.112;18.418;2023-05-20T11:46:27;32.40;31.40
24260;DHT22;12384;48.112;18.418;2023-05-20T11:48:56;32.40;31.90
24260;DHT22;12384;48.112;18.418;2023-05-20T11:51:26;32.50;31.50
24260;DHT22;12384;48.112;18.418;2023-05-20T11:53:58;32.60;31.30
24260;DHT22;12384;48.112;18.418;2023-05-20T11:56:28;32.60;31.50
24260;DHT22;12384;48.112;18.418;2023-05-20T11:58:59;32.60;31.00
24260;DHT22;12384;48.112;18.418;2023-05-20T12:01:30;32.70;31.50
24260;DHT22;12384;48.112;18.418;2023-05-20T12:04:04;32.70;31.40
24260;DHT22;12384;48.112;18.418;2023-05-20T12:06:33;32.80;31.10
24260;DHT22;12384;48.112;18.418;2023-05-20T12:09:04;32.90;30.10
24260;DHT22;12384;48.112;18.418;2023-05-20T12:11:34;32.90;30.50
24260;DHT22;12384;48.112;18.418;2023-05-20T12:14:03;32.90;30.60
24260;DHT22;12384;48.112;18.418;2023-05-20T12:16:34;32.90;31.40
24260;DHT22;12384;48.112;18.418;2023-05-20T12:19:03;33.00;31.40
24260;DHT22;12384;48.112;18.418;2023-05-20T12:21:31;33.10;31.40
24260;DHT22;12384;48.112;18.418;2023-05-20T12:24:00;33.20;31.10
24260;DHT22;12384;48.112;18.418;2023-05-20T12:26:31;33.40;29.70
24260;DHT22;12384;48.112;18.418;2023-05-20T12:29:01;33.50;29.60
24260;DHT22;12384;48.112;18.418;2023-05-20T12:31:29;33.50;29.20
24260;DHT22;12384;48.112;18.418;2023-05-20T12:34:02;33.50;28.70
24260;DHT22;12384;48.112;18.418;2023-05-20T12:36:31;33.50;28.80
24260;DHT22;12384;48.112;18.418;2023-05-20T12:39:00;33.60;28.50
24260;DHT22;12384;48.112;18.418;2023-05-20T12:41:28;33.60;28.00
24260;DHT22;12384;48.112;18.418;2023-05-20T12:43:57;33.60;28.00
24260;DHT22;12384;48.112;18.418;2023-05-20T12:46:25;33.60;28.90
24260;DHT22;12384;48.112;18.418;2023-05-20T12:48:54;33.70;29.10
24260;DHT22;12384;48.112;18.418;2023-05-20T12:51:24;33.80;28.60
24260;DHT22;12384;48.112;18.418;2023-05-20T12:53:52;33.90;29.10
24260;DHT22;12384;48.112;18.418;2023-05-20T12:56:24;34.00;29.00
24260;DHT22;12384;48.112;18.418;2023-05-20T12:58:53;34.10;28.60
24260;DHT22;12384;48.112;18.418;2023-05-20T13:01:21;34.30;28.80
24260;DHT22;12384;48.112;18.418;2023-05-20T13:03:50;34.40;28.70
24260;DHT22;12384;48.112;18.418;2023-05-20T13:06:19;34.40;28.60
24260;DHT22;12384;48.112;18.418;2023-05-20T13:08:49;34.50;28.30
24260;DHT22;12384;48.112;18.418;2023-05-20T13:11:18;34.60;28.10
24260;DHT22;12384;48.112;18.418;2023-05-20T13:13:46;34.70;27.80
24260;DHT22;12384;48.112;18.418;2023-05-20T13:16:14;34.60;28.00
24260;DHT22;12384;48.112;18.418;2023-05-20T13:18:44;34.60;27.90
24260;DHT22;12384;48.112;18.418;2023-05-20T13:21:13;34.50;28.10
24260;DHT22;12384;48.112;18.418;2023-05-20T13:23:42;34.50;28.30
24260;DHT22;12384;48.112;18.418;2023-05-20T13:26:12;34.50;27.90
24260;DHT22;12384;48.112;18.418;2023-05-20T13:28:40;34.50;28.00
24260;DHT22;12384;48.112;18.418;2023-05-20T13:31:09;34.50;28.10
24260;DHT22;12384;48.112;18.418;2023-05-20T13:33:37;34.40;28.70
24260;DHT22;12384;48.112;18.418;2023-05-20T13:36:06;34.40;29.10
24260;DHT22;12384;48.112;18.418;2023-05-20T13:38:35;34.30;28.30
24260;DHT22;12384;48.112;18.418;2023-05-20T13:41:03;34.00;28.20
24260;DHT22;12384;48.112;18.418;2023-05-20T13:43:33;33.70;28.80
24260;DHT22;12384;48.112;18.418;2023-05-20T13:46:02;33.40;29.00
24260;DHT22;12384;48.112;18.418;2023-05-20T13:48:30;33.00;29.30
24260;DHT22;12384;48.112;18.418;2023-05-20T13:50:59;32.50;29.30
24260;DHT22;12384;48.112;18.418;2023-05-20T13:53:28;32.00;29.60
24260;DHT22;12384;48.112;18.418;2023-05-20T13:55:57;31.60;30.10
24260;DHT22;12384;48.112;18.418;2023-05-20T13:58:25;31.20;30.90
24260;DHT22;12384;48.112;18.418;2023-05-20T14:00:55;30.90;31.30
24260;DHT22;12384;48.112;18.418;2023-05-20T14:03:24;30.70;31.70
24260;DHT22;12384;48.112;18.418;2023-05-20T14:05:52;30.50;32.00
24260;DHT22;12384;48.112;18.418;2023-05-20T14:08:21;30.30;32.80
24260;DHT22;12384;48.112;18.418;2023-05-20T14:10:49;30.20;32.20
24260;DHT22;12384;48.112;18.418;2023-05-20T14:13:21;30.00;32.60
24260;DHT22;12384;48.112;18.418;2023-05-20T14:15:50;29.90;32.70
24260;DHT22;12384;48.112;18.418;2023-05-20T14:18:22;29.70;32.40
24260;DHT22;12384;48.112;18.418;2023-05-20T14:20:50;29.60;32.60
24260;DHT22;12384;48.112;18.418;2023-05-20T14:23:19;29.40;33.40
24260;DHT22;12384;48.112;18.418;2023-05-20T14:25:47;29.10;33.30
24260;DHT22;12384;48.112;18.418;2023-05-20T14:28:16;28.90;34.10
24260;DHT22;12384;48.112;18.418;2023-05-20T14:30:44;28.50;34.70
24260;DHT22;12384;48.112;18.418;2023-05-20T14:33:13;28.30;35.30
24260;DHT22;12384;48.112;18.418;2023-05-20T14:35:43;28.00;35.70
24260;DHT22;12384;48.112;18.418;2023-05-20T14:38:11;27.80;36.00
24260;DHT22;12384;48.112;18.418;2023-05-20T14:40:40;27.60;36.40
24260;DHT22;12384;48.112;18.418;2023-05-20T14:43:08;27.40;36.70
24260;DHT22;12384;48.112;18.418;2023-05-20T14:45:36;27.20;37.00
24260;DHT22;12384;48.112;18.418;2023-05-20T14:48:05;27.00;37.50
24260;DHT22;12384;48.112;18.418;2023-05-20T14:50:34;26.90;37.90
24260;DHT22;12384;48.112;18.418;2023-05-20T14:53:04;26.70;38.10
24260;DHT22;12384;48.112;18.418;2023-05-20T14:55:33;26.60;38.20
24260;DHT22;12384;48.112;18.418;2023-05-20T14:58:01;26.50;38.20
24260;DHT22;12384;48.112;18.418;2023-05-20T15:00:30;26.50;38.50
24260;DHT22;12384;48.112;18.418;2023-05-20T15:02:59;26.40;38.70
24260;DHT22;12384;48.112;18.418;2023-05-20T15:05:28;26.40;38.90
24260;DHT22;12384;48.112;18.418;2023-05-20T15:07:57;26.40;39.20
24260;DHT22;12384;48.112;18.418;2023-05-20T15:10:26;26.50;39.50
24260;DHT22;12384;48.112;18.418;2023-05-20T15:12:55;26.60;39.50
24260;DHT22;12384;48.112;18.418;2023-05-20T15:15:23;26.70;39.10
24260;DHT22;12384;48.112;18.418;2023-05-20T15:17:52;26.70;39.10
24260;DHT22;12384;48.112;18.418;2023-05-20T15:20:21;26.80;39.10
24260;DHT22;12384;48.112;18.418;2023-05-20T15:22:50;26.80;39.00
24260;DHT22;12384;48.112;18.418;2023-05-20T15:25:18;26.90;38.90
24260;DHT22;12384;48.112;18.418;2023-05-20T15:27:48;26.90;38.70
24260;DHT22;12384;48.112;18.418;2023-05-20T15:30:16;26.90;38.90
24260;DHT22;12384;48.112;18.418;2023-05-20T15:32:44;26.90;39.10
24260;DHT22;12384;48.112;18.418;2023-05-20T15:35:13;27.00;38.90